createdAt,value
2022-12-03T00:00:22.441Z,9.98
2022-12-03T00:02:49.117Z,10.73
2022-12-03T00:05:15.699Z,11.23
2022-12-03T00:07:42.171Z,8.45
2022-12-03T00:10:09.538Z,8.63
2022-12-03T00:12:35.966Z,9.00
2022-12-03T00:15:02.515Z,9.85
2022-12-03T00:17:28.981Z,9.35
2022-12-03T00:19:55.444Z,10.02
2022-12-03T00:22:21.893Z,9.27
2022-12-03T00:24:48.372Z,12.70
2022-12-03T00:27:14.876Z,10.35
2022-12-03T00:29:41.296Z,7.63
2022-12-03T00:32:07.783Z,9.18
2022-12-03T00:34:34.228Z,10.05
2022-12-03T00:37:00.685Z,11.57
2022-12-03T00:39:27.239Z,8.88
2022-12-03T00:41:53.674Z,8.50
2022-12-03T00:44:20.104Z,9.75
2022-12-03T00:46:46.659Z,9.32
2022-12-03T00:49:13.229Z,9.00
2022-12-03T00:51:39.749Z,8.55
2022-12-03T00:54:06.260Z,8.98
2022-12-03T00:56:32.840Z,8.75
2022-12-03T00:58:59.355Z,10.10
2022-12-03T01:01:25.967Z,8.38
2022-12-03T01:03:52.450Z,10.30
2022-12-03T01:06:18.889Z,11.10
2022-12-03T01:08:45.443Z,9.43
2022-12-03T01:11:30.069Z,11.00
2022-12-03T01:13:56.531Z,8.57
2022-12-03T01:16:23.125Z,9.52
2022-12-03T01:18:52.284Z,10.80
2022-12-03T01:21:19.787Z,9.85
2022-12-03T01:23:46.449Z,9.45
2022-12-03T01:26:12.987Z,9.73
2022-12-03T01:28:41.744Z,8.95
2022-12-03T01:31:27.848Z,8.63
2022-12-03T01:33:54.739Z,8.32
2022-12-03T01:36:21.257Z,9.85
2022-12-03T01:38:48.862Z,8.75
2022-12-03T01:41:17.532Z,9.27
2022-12-03T01:43:44.678Z,9.27
2022-12-03T01:46:23.989Z,8.93
2022-12-03T01:48:52.973Z,9.35
2022-12-03T01:51:19.806Z,8.90
2022-12-03T01:53:46.576Z,9.98
2022-12-03T01:56:15.672Z,9.32
2022-12-03T01:58:43.432Z,10.32
2022-12-03T02:01:15.935Z,7.82
2022-12-03T02:03:43.654Z,8.93
2022-12-03T02:06:16.830Z,9.20
2022-12-03T02:11:24.403Z,10.75
2022-12-03T02:13:55.447Z,9.18
2022-12-03T02:16:22.094Z,10.15
2022-12-03T02:18:48.813Z,8.73
2022-12-03T02:21:43.559Z,9.20
2022-12-03T02:24:43.663Z,8.80
2022-12-03T02:27:10.107Z,9.10
2022-12-03T02:29:36.948Z,8.43
2022-12-03T02:32:03.818Z,7.32
2022-12-03T02:34:39.458Z,9.20
2022-12-03T02:37:09.810Z,8.80
2022-12-03T02:39:40.028Z,8.27
2022-12-03T02:42:26.004Z,8.35
2022-12-03T02:44:53.300Z,9.00
2022-12-03T02:47:22.291Z,9.27
2022-12-03T02:49:49.626Z,9.02
2022-12-03T02:52:16.272Z,9.23
2022-12-03T02:54:42.967Z,8.75
2022-12-03T02:57:09.660Z,9.40
2022-12-03T02:59:36.205Z,9.35
2022-12-03T03:02:02.795Z,10.25
2022-12-03T03:04:29.901Z,9.45
2022-12-03T03:06:56.632Z,10.13
2022-12-03T03:09:23.145Z,8.88
2022-12-03T03:11:49.577Z,8.98
2022-12-03T03:14:16.100Z,9.52
2022-12-03T03:16:42.720Z,8.70
2022-12-03T03:19:09.483Z,8.40
2022-12-03T03:21:35.943Z,7.75
2022-12-03T03:24:03.074Z,8.30
2022-12-03T03:26:29.538Z,8.88
2022-12-03T03:28:57.525Z,10.20
2022-12-03T03:31:24.429Z,8.38
2022-12-03T03:33:51.733Z,7.47
2022-12-03T03:36:19.488Z,8.98
2022-12-03T03:38:47.068Z,8.45
2022-12-03T03:41:14.476Z,8.88
2022-12-03T03:43:42.907Z,9.88
2022-12-03T03:46:10.781Z,8.85
2022-12-03T03:48:37.917Z,9.13
2022-12-03T03:51:09.249Z,8.25
2022-12-03T03:53:38.989Z,8.65
2022-12-03T03:56:06.154Z,8.85
2022-12-03T03:58:32.904Z,7.35
2022-12-03T04:01:01.338Z,7.97
2022-12-03T04:03:29.140Z,9.43
2022-12-03T04:05:55.656Z,8.35
2022-12-03T04:08:22.081Z,8.57
2022-12-03T04:11:07.123Z,9.68
2022-12-03T04:13:33.572Z,7.50
2022-12-03T04:15:59.972Z,7.70
2022-12-03T04:18:44.724Z,8.85
2022-12-03T04:21:35.784Z,8.55
2022-12-03T04:24:02.521Z,9.85
2022-12-03T04:26:47.764Z,8.07
2022-12-03T04:29:14.246Z,8.85
2022-12-03T04:31:59.349Z,8.23
2022-12-03T04:34:44.236Z,7.60
2022-12-03T04:37:11.081Z,9.40
2022-12-03T04:39:38.008Z,9.30
2022-12-03T04:42:05.823Z,8.98
2022-12-03T04:44:33.167Z,9.02
2022-12-03T04:47:00.582Z,8.50
2022-12-03T04:49:27.125Z,8.93
2022-12-03T04:51:53.596Z,9.90
2022-12-03T04:54:20.018Z,7.80
2022-12-03T04:56:46.499Z,9.30
2022-12-03T04:59:16.264Z,8.18
2022-12-03T05:01:44.041Z,7.95
2022-12-03T05:04:11.337Z,9.80
2022-12-03T05:06:37.990Z,8.60
2022-12-03T05:09:05.071Z,7.47
2022-12-03T05:11:31.870Z,7.88
2022-12-03T05:13:58.440Z,10.40
2022-12-03T05:16:25.002Z,7.15
2022-12-03T05:18:51.559Z,9.18
2022-12-03T05:21:18.032Z,9.73
2022-12-03T05:23:44.520Z,9.20
2022-12-03T05:26:11.370Z,9.57
2022-12-03T05:28:37.959Z,8.48
2022-12-03T05:31:05.792Z,8.50
2022-12-03T05:33:32.304Z,9.40
2022-12-03T05:35:59.014Z,8.55
2022-12-03T05:38:25.508Z,8.45
2022-12-03T05:40:52.016Z,8.52
2022-12-03T05:43:18.512Z,9.05
2022-12-03T05:45:45.354Z,8.88
2022-12-03T05:48:16.306Z,8.98
2022-12-03T05:50:45.114Z,8.60
2022-12-03T05:53:12.727Z,9.15
2022-12-03T05:55:39.444Z,8.45
2022-12-03T05:58:06.932Z,10.10
2022-12-03T06:00:42.479Z,7.50
2022-12-03T06:03:10.061Z,6.72
2022-12-03T06:05:36.747Z,8.52
2022-12-03T06:08:03.569Z,7.40
2022-12-03T06:10:30.512Z,8.32
2022-12-03T06:12:57.013Z,7.50
2022-12-03T06:15:25.516Z,8.80
2022-12-03T06:17:52.341Z,9.48
2022-12-03T06:20:20.206Z,8.07
2022-12-03T06:22:50.107Z,8.35
2022-12-03T06:25:19.402Z,6.63
2022-12-03T06:27:45.860Z,7.70
2022-12-03T06:30:14.846Z,8.23
2022-12-03T06:32:42.557Z,7.95
2022-12-03T06:35:09.238Z,6.47
2022-12-03T06:37:35.806Z,7.70
2022-12-03T06:40:03.101Z,7.65
2022-12-03T06:42:29.699Z,7.32
2022-12-03T06:44:56.439Z,7.40
2022-12-03T06:47:23.430Z,8.60
2022-12-03T06:49:49.989Z,5.65
2022-12-03T06:52:16.565Z,7.20
2022-12-03T06:54:42.978Z,7.07
2022-12-03T06:57:09.420Z,6.80
2022-12-03T06:59:37.480Z,7.13
2022-12-03T07:02:04.878Z,7.25
2022-12-03T07:04:31.414Z,8.30
2022-12-03T07:06:58.002Z,7.47
2022-12-03T07:09:24.529Z,7.85
2022-12-03T07:11:51.031Z,7.63
2022-12-03T07:14:17.502Z,6.72
2022-12-03T07:16:44.162Z,7.47
2022-12-03T07:19:11.091Z,6.70
2022-12-03T07:21:38.114Z,6.53
2022-12-03T07:24:05.540Z,6.88
2022-12-03T07:26:32.111Z,7.03
2022-12-03T07:28:58.807Z,6.90
2022-12-03T07:31:25.336Z,7.20
2022-12-03T07:33:51.835Z,6.88
2022-12-03T07:36:18.317Z,6.93
2022-12-03T07:38:44.796Z,6.38
2022-12-03T07:41:11.360Z,7.03
2022-12-03T07:43:37.816Z,6.88
2022-12-03T07:46:04.310Z,6.93
2022-12-03T07:48:30.733Z,7.05
2022-12-03T07:50:57.182Z,6.50
2022-12-03T07:53:23.620Z,7.97
2022-12-03T07:55:50.058Z,7.65
2022-12-03T07:58:16.528Z,7.43
2022-12-03T08:00:42.981Z,8.18
2022-12-03T08:03:09.490Z,6.88
2022-12-03T08:05:35.935Z,6.43
2022-12-03T08:08:02.461Z,7.32
2022-12-03T08:10:28.983Z,6.50
2022-12-03T08:12:58.282Z,8.02
2022-12-03T08:15:26.823Z,7.20
2022-12-03T08:17:59.230Z,6.97
2022-12-03T08:20:31.539Z,6.32
2022-12-03T08:22:58.003Z,6.90
2022-12-03T08:25:25.701Z,6.88
2022-12-03T08:27:55.574Z,7.85
2022-12-03T08:30:22.242Z,6.65
2022-12-03T08:32:48.911Z,7.00
2022-12-03T08:35:22.823Z,7.00
2022-12-03T08:38:01.686Z,7.43
2022-12-03T08:40:37.070Z,9.18
2022-12-03T08:43:13.767Z,8.00
2022-12-03T08:45:42.094Z,7.82
2022-12-03T08:48:29.584Z,7.30
2022-12-03T08:50:59.232Z,7.13
2022-12-03T08:53:34.974Z,7.32
2022-12-03T08:56:19.316Z,6.95
2022-12-03T08:58:49.473Z,7.10
2022-12-03T09:01:28.840Z,7.10
2022-12-03T09:03:57.938Z,7.95
2022-12-03T09:06:24.563Z,6.55
2022-12-03T09:08:51.011Z,8.02
2022-12-03T09:11:17.489Z,7.13
2022-12-03T09:13:44.011Z,8.65
2022-12-03T09:16:10.593Z,7.85
2022-12-03T09:18:37.143Z,7.93
2022-12-03T09:21:03.669Z,7.68
2022-12-03T09:23:30.191Z,9.07
2022-12-03T09:25:56.681Z,6.78
2022-12-03T09:28:23.190Z,6.60
2022-12-03T09:30:49.763Z,7.63
2022-12-03T09:33:16.284Z,7.57
2022-12-03T09:35:42.765Z,7.18
2022-12-03T09:38:09.317Z,7.13
2022-12-03T09:40:35.854Z,8.07
2022-12-03T09:43:02.386Z,10.00
2022-12-03T09:45:28.876Z,7.70
2022-12-03T09:47:55.399Z,10.15
2022-12-03T09:50:25.394Z,9.55
2022-12-03T09:52:54.952Z,10.00
2022-12-03T09:55:25.467Z,8.35
2022-12-03T09:57:56.935Z,6.97
2022-12-03T10:00:26.984Z,10.40
2022-12-03T10:02:56.371Z,11.13
2022-12-03T10:05:23.837Z,11.55
2022-12-03T10:07:52.229Z,14.02
2022-12-03T10:10:22.185Z,13.13
2022-12-03T10:12:49.981Z,11.20
2022-12-03T10:15:18.962Z,10.40
2022-12-03T10:17:51.072Z,13.63
2022-12-03T10:20:19.538Z,11.93
2022-12-03T10:22:48.622Z,12.52
2022-12-03T10:25:18.176Z,13.52
2022-12-03T10:27:56.033Z,15.55
2022-12-03T10:30:26.381Z,22.92
2022-12-03T10:32:52.967Z,43.78
2022-12-03T10:35:21.322Z,37.47
2022-12-03T10:37:56.722Z,40.55
2022-12-03T10:40:30.412Z,44.42
2022-12-03T10:43:16.025Z,53.58
2022-12-03T10:45:43.077Z,48.70
2022-12-03T10:48:19.700Z,48.88
2022-12-03T10:50:52.823Z,49.75
2022-12-03T10:53:21.372Z,42.28
2022-12-03T10:55:51.028Z,47.20
2022-12-03T10:58:23.444Z,57.35
2022-12-03T11:00:51.556Z,152.75
2022-12-03T11:03:23.450Z,159.52
2022-12-03T11:05:50.957Z,167.88
2022-12-03T11:08:23.919Z,192.98
2022-12-03T11:13:39.738Z,229.52
2022-12-03T11:16:08.279Z,246.85
2022-12-03T11:18:37.837Z,268.45
2022-12-03T11:21:08.903Z,309.95
2022-12-03T11:23:44.394Z,291.08
2022-12-03T11:26:29.257Z,286.95
2022-12-03T11:28:57.713Z,267.88
2022-12-03T11:31:40.929Z,258.77
2022-12-03T11:34:17.065Z,248.02
2022-12-03T11:37:11.776Z,241.15
2022-12-03T11:39:55.673Z,214.35
2022-12-03T11:42:25.539Z,214.77
2022-12-03T11:45:03.985Z,208.48
2022-12-03T11:48:00.406Z,201.65
2022-12-03T11:50:55.864Z,217.90
2022-12-03T11:53:27.208Z,242.15
2022-12-03T11:56:11.162Z,242.88
2022-12-03T11:58:39.973Z,235.52
2022-12-03T12:01:07.800Z,225.15
2022-12-03T12:03:37.266Z,213.52
2022-12-03T12:06:39.480Z,216.20
2022-12-03T12:09:05.973Z,157.48
2022-12-03T12:11:34.079Z,117.70
2022-12-03T12:14:09.441Z,121.80
2022-12-03T12:16:39.023Z,106.88
2022-12-03T12:19:33.269Z,102.40
2022-12-03T12:22:16.758Z,106.13
2022-12-03T12:24:45.836Z,98.32
2022-12-03T12:27:12.206Z,97.93
2022-12-03T12:29:45.749Z,94.05
2022-12-03T12:32:17.373Z,87.63
2022-12-03T12:34:49.267Z,69.30
2022-12-03T12:37:30.770Z,71.50
2022-12-03T12:39:57.980Z,64.00
2022-12-03T12:42:36.438Z,45.75
2022-12-03T12:45:16.404Z,49.75
2022-12-03T12:47:48.431Z,52.55
2022-12-03T12:50:16.657Z,48.47
2022-12-03T12:52:55.142Z,49.20
2022-12-03T12:55:23.007Z,45.72
2022-12-03T13:00:23.553Z,41.00
2022-12-03T13:02:55.855Z,44.75
2022-12-03T13:05:23.939Z,43.80
2022-12-03T13:07:52.772Z,39.88
2022-12-03T13:10:33.746Z,36.47
2022-12-03T13:13:44.005Z,40.78
2022-12-03T13:16:28.416Z,35.88
2022-12-03T13:18:57.344Z,36.95
2022-12-03T13:21:40.982Z,33.80
2022-12-03T13:24:37.996Z,31.73
2022-12-03T13:27:13.570Z,32.67
2022-12-03T13:29:40.189Z,33.08
2022-12-03T13:32:13.645Z,37.78
2022-12-03T13:34:40.742Z,29.05
2022-12-03T13:37:14.180Z,33.83
2022-12-03T13:39:57.897Z,28.38
2022-12-03T13:42:39.011Z,30.15
2022-12-03T13:45:35.609Z,29.25
2022-12-03T13:48:13.612Z,29.77
2022-12-03T13:50:43.964Z,29.80
2022-12-03T13:53:27.304Z,26.50
2022-12-03T13:55:58.016Z,27.30
2022-12-03T13:58:24.474Z,28.58
2022-12-03T14:00:50.949Z,56.78
2022-12-03T14:03:17.712Z,69.60
2022-12-03T14:05:44.196Z,66.55
2022-12-03T14:08:10.697Z,65.00
2022-12-03T14:10:37.177Z,62.83
2022-12-03T14:13:03.616Z,60.65
2022-12-03T14:15:30.121Z,60.30
2022-12-03T14:17:56.615Z,70.60
2022-12-03T14:20:23.070Z,65.50
2022-12-03T14:22:49.559Z,64.50
2022-12-03T14:25:16.212Z,64.00
2022-12-03T14:27:42.693Z,66.78
2022-12-03T14:30:09.742Z,68.35
2022-12-03T14:32:36.230Z,63.50
2022-12-03T14:35:08.118Z,62.05
2022-12-03T14:37:36.646Z,59.65
2022-12-03T14:40:03.867Z,60.40
2022-12-03T14:42:30.464Z,60.08
2022-12-03T14:44:59.834Z,54.47
2022-12-03T14:47:26.288Z,54.42
2022-12-03T14:49:53.266Z,52.33
2022-12-03T14:52:20.215Z,51.20
2022-12-03T14:54:46.777Z,52.80
2022-12-03T14:57:14.469Z,47.70
2022-12-03T14:59:42.394Z,46.83
2022-12-03T15:02:10.130Z,44.55
2022-12-03T15:04:37.248Z,46.33
2022-12-03T15:07:04.092Z,46.83
2022-12-03T15:09:30.778Z,41.88
2022-12-03T15:11:57.289Z,44.00
2022-12-03T15:14:23.769Z,45.33
2022-12-03T15:16:50.365Z,42.72
2022-12-03T15:19:17.111Z,42.05
2022-12-03T15:21:43.570Z,43.22
2022-12-03T15:24:10.632Z,41.50
2022-12-03T15:26:37.100Z,38.28
2022-12-03T15:29:03.599Z,41.58
2022-12-03T15:31:30.150Z,40.55
2022-12-03T15:33:56.685Z,40.10
2022-12-03T15:36:23.166Z,38.70
2022-12-03T15:38:49.714Z,36.08
2022-12-03T15:41:24.635Z,40.17
2022-12-03T15:43:54.761Z,34.63
2022-12-03T15:46:21.408Z,37.22
2022-12-03T15:48:48.443Z,35.88
2022-12-03T15:51:15.330Z,36.33
2022-12-03T15:53:42.253Z,33.70
2022-12-03T15:56:09.089Z,32.80
2022-12-03T15:58:35.594Z,33.45
2022-12-03T16:01:02.149Z,33.30
2022-12-03T16:03:28.988Z,32.03
2022-12-03T16:05:55.481Z,30.92
2022-12-03T16:08:22.184Z,31.83
2022-12-03T16:10:48.686Z,32.72
2022-12-03T16:13:15.245Z,31.13
2022-12-03T16:15:41.780Z,31.75
2022-12-03T16:18:08.314Z,31.17
2022-12-03T16:20:34.780Z,30.02
2022-12-03T16:23:01.209Z,29.55
2022-12-03T16:25:27.727Z,29.30
2022-12-03T16:27:54.289Z,27.92
2022-12-03T16:30:20.767Z,28.80
2022-12-03T16:32:47.201Z,28.00
2022-12-03T16:35:28.216Z,27.23
2022-12-03T16:38:03.854Z,27.55
2022-12-03T16:40:30.345Z,28.85
2022-12-03T16:42:56.805Z,29.77
2022-12-03T16:45:40.714Z,27.42
2022-12-03T16:48:07.162Z,25.13
2022-12-03T16:50:34.310Z,24.95
2022-12-03T16:53:00.934Z,25.08
2022-12-03T16:55:27.476Z,23.70
2022-12-03T16:57:53.829Z,25.55
2022-12-03T17:00:21.854Z,25.55
2022-12-03T17:02:48.695Z,24.45
2022-12-03T17:05:15.226Z,23.45
2022-12-03T17:07:41.602Z,23.35
2022-12-03T17:10:08.412Z,24.20
2022-12-03T17:13:07.070Z,23.40
2022-12-03T17:15:21.444Z,24.52
2022-12-03T17:17:47.972Z,22.02
2022-12-03T17:20:14.751Z,20.58
2022-12-03T17:22:41.757Z,22.38
2022-12-03T17:25:08.907Z,22.17
2022-12-03T17:27:37.053Z,24.40
2022-12-03T17:30:07.287Z,21.02
2022-12-03T17:32:34.070Z,22.15
2022-12-03T17:35:00.600Z,21.95
2022-12-03T17:37:27.094Z,22.48
2022-12-03T17:39:53.881Z,20.45
2022-12-03T17:42:20.857Z,20.20
2022-12-03T17:44:47.346Z,20.05
2022-12-03T17:47:13.804Z,20.55
2022-12-03T17:49:40.309Z,18.55
2022-12-03T17:52:06.734Z,19.30
2022-12-03T17:54:55.103Z,17.67
2022-12-03T17:57:19.582Z,19.92
2022-12-03T17:59:46.046Z,19.50
2022-12-03T18:02:12.639Z,18.63
2022-12-03T18:04:39.244Z,20.52
2022-12-03T18:07:05.653Z,20.40
2022-12-03T18:09:32.106Z,20.75
2022-12-03T18:11:58.609Z,19.48
2022-12-03T18:14:25.086Z,18.77
2022-12-03T18:16:51.490Z,18.50
2022-12-03T18:19:18.014Z,17.55
2022-12-03T18:21:44.602Z,17.20
2022-12-03T18:24:11.112Z,17.63
2022-12-03T18:26:37.869Z,18.98
2022-12-03T18:29:04.385Z,17.85
2022-12-03T18:31:30.913Z,19.50
2022-12-03T18:33:57.382Z,19.95
2022-12-03T18:36:26.309Z,20.80
2022-12-03T18:38:55.225Z,17.85
2022-12-03T18:41:24.094Z,18.08
2022-12-03T18:43:51.185Z,16.40
2022-12-03T18:46:51.302Z,17.65
2022-12-03T18:49:05.840Z,18.65
2022-12-03T18:51:32.481Z,16.65
2022-12-03T18:53:58.959Z,16.67
2022-12-03T18:56:28.198Z,16.15
2022-12-03T18:58:54.927Z,15.80
2022-12-03T19:01:25.880Z,15.95
2022-12-03T19:03:53.990Z,15.48
2022-12-03T19:06:21.468Z,15.35
2022-12-03T19:08:51.463Z,15.40
2022-12-03T19:11:18.141Z,15.35
2022-12-03T19:13:45.782Z,15.02
2022-12-03T19:16:12.734Z,15.77
2022-12-03T19:18:39.583Z,14.60
2022-12-03T19:21:10.706Z,14.32
2022-12-03T19:23:40.478Z,14.68
2022-12-03T19:26:09.450Z,14.10
2022-12-03T19:28:36.520Z,15.02
2022-12-03T19:31:09.638Z,14.60
2022-12-03T19:33:36.404Z,15.63
2022-12-03T19:36:07.621Z,14.88
2022-12-03T19:38:38.787Z,14.32
2022-12-03T19:41:10.565Z,14.52
2022-12-03T19:43:38.300Z,14.57
2022-12-03T19:46:12.200Z,14.23
2022-12-03T19:48:40.518Z,14.00
2022-12-03T19:51:33.153Z,13.88
2022-12-03T19:53:55.232Z,13.60
2022-12-03T19:56:22.161Z,13.95
2022-12-03T19:58:48.661Z,13.73
2022-12-03T20:01:18.803Z,13.52
2022-12-03T20:03:47.772Z,13.63
2022-12-03T20:06:16.102Z,14.15
2022-12-03T20:08:43.175Z,14.27
2022-12-03T20:11:21.029Z,13.10
2022-12-03T20:13:48.794Z,13.93
2022-12-03T20:16:18.655Z,14.13
2022-12-03T20:18:49.290Z,13.88
2022-12-03T20:21:18.736Z,14.48
2022-12-03T20:23:46.251Z,14.02
2022-12-03T20:26:16.079Z,13.50
2022-12-03T20:28:42.660Z,13.52
2022-12-03T20:31:14.723Z,13.27
2022-12-03T20:33:50.519Z,12.52
2022-12-03T20:36:24.002Z,13.45
2022-12-03T20:38:55.120Z,13.60
2022-12-03T20:41:23.712Z,12.98
2022-12-03T20:44:30.393Z,12.88
2022-12-03T20:47:27.966Z,12.25
2022-12-03T20:49:57.768Z,12.43
2022-12-03T20:52:27.417Z,13.70
2022-12-03T20:54:57.361Z,12.52
2022-12-03T20:57:24.685Z,13.05
2022-12-03T21:00:16.418Z,12.43
2022-12-03T21:02:46.259Z,12.68
2022-12-03T21:05:34.200Z,12.90
2022-12-03T21:08:40.171Z,12.80
2022-12-03T21:14:21.845Z,13.07
2022-12-03T21:19:44.969Z,11.68
2022-12-03T21:28:01.874Z,11.82
2022-12-03T21:30:28.416Z,12.00
2022-12-03T21:32:55.793Z,11.82
2022-12-03T21:35:46.824Z,11.32
2022-12-03T21:41:41.145Z,11.73
2022-12-03T21:45:12.114Z,10.98
2022-12-03T21:50:31.268Z,11.15
2022-12-03T21:56:21.071Z,12.10
2022-12-03T21:58:50.720Z,10.88
2022-12-03T22:01:22.555Z,11.63
2022-12-03T22:03:49.735Z,11.27
2022-12-03T22:06:17.374Z,11.15
2022-12-03T22:08:44.271Z,10.90
2022-12-03T22:11:19.543Z,11.35
2022-12-03T22:13:46.851Z,11.40
2022-12-03T22:16:16.416Z,11.70
2022-12-03T22:18:45.477Z,11.05
2022-12-03T22:21:14.600Z,11.02
2022-12-03T22:23:42.071Z,11.13
2022-12-03T22:26:14.039Z,11.18
2022-12-03T22:28:47.895Z,11.47
2022-12-03T22:31:15.525Z,10.73
2022-12-03T22:33:43.415Z,11.48
2022-12-03T22:36:20.095Z,11.85
2022-12-03T22:38:48.494Z,11.73
2022-12-03T22:41:15.709Z,11.25
2022-12-03T22:43:42.809Z,11.60
2022-12-03T22:46:13.080Z,11.88
2022-12-03T22:48:41.224Z,11.80
2022-12-03T22:51:26.286Z,10.90
2022-12-03T22:53:57.258Z,10.52
2022-12-03T22:56:24.726Z,11.25
2022-12-03T22:58:51.663Z,11.35
2022-12-03T23:01:47.666Z,11.68
2022-12-03T23:04:14.236Z,10.85
2022-12-03T23:06:41.245Z,12.18
2022-12-03T23:09:08.151Z,10.68
2022-12-03T23:11:34.945Z,11.05
2022-12-03T23:14:01.941Z,12.25
2022-12-03T23:16:32.074Z,11.98
2022-12-03T23:18:59.757Z,12.25
2022-12-03T23:21:30.301Z,11.32
2022-12-03T23:24:01.473Z,10.70
2022-12-03T23:26:28.985Z,12.10
2022-12-03T23:28:56.006Z,10.55
2022-12-03T23:31:29.341Z,11.50
2022-12-03T23:33:59.827Z,11.75
2022-12-03T23:36:29.402Z,10.88
2022-12-03T23:38:59.083Z,10.50
2022-12-03T23:41:26.296Z,10.88
2022-12-03T23:43:53.257Z,12.15
2022-12-03T23:46:22.851Z,11.27
2022-12-03T23:48:50.955Z,11.38
2022-12-03T23:51:20.226Z,12.45
2022-12-03T23:53:47.640Z,11.80
2022-12-03T23:56:17.059Z,11.07
2022-12-03T23:58:49.893Z,11.45
